Friday, September 19, 2014
13:56 UTC
  |  Log In   |  Register Free
Airport Search:

Comanche County-City Airport
(KMKN)

Comanche County-City Airport Diagram
No Airport Diagram Available

FAA data valid effective September 18, 2014 - November 13, 2014 (unless otherwise noted).

 
 
 
 
 
 
 
 
 
 
 
 
 
 

Current Aviation Weather for Comanche County-City Airport (KMKN)

The most recent METAR observation for KMKN was updated at: 1313
METAR Summary (Translated METAR)
KMKN
191255Z AUTO 00000KT 4SM BR BKN002 OVC013 21/21 A2995 RMK AO2 P0001 T02130213
KBWD
191255Z AUTO 04003KT 9SM BKN005 OVC065 21/21 A2995 RMK AO2
(19.7 nm SW from KMKN)
KMNZ
191255Z AUTO 08005KT 2SM BR OVC003 22/22 A2995 RMK AO2 T02200220
(27.6 nm SE from KMKN)
TAF
No TAF information found within 50 nm of KMKN
  Airport Weather Conditions for KMKN

 Current Weather at MKN
70° F
Fog/Mist
North winds at 0.0 mph
MKN NOAA Radar

Pressure: 29.95 in
Humidity: 100%
Wind: Calm
Dew Point: 70.3°F
Visibility: 4.00 mi


Airport Weather Forecast for KMKN

Translated METAR and TAF for KMKN
Translated METAR for KMKN (1350 UTC 19 September 2014)
found at http://aviationweather.gov/adds/metars/
 
METAR text: KMKN 191335Z AUTO 00000KT 7SM SCT002 OVC013 22/22 A2997 RMK AO2 T02150215
Conditions at: KMKN (COMANCHE , TX, US) observed 1335 UTC 19 September 2014
Temperature: 21.5°C (71°F)
Dewpoint: 21.5°C (71°F) [RH = 100%]
Pressure (altimeter): 29.97 inches Hg (1015.0 mb)
Winds: calm
Visibility: 7 miles (11 km)
Ceiling: 1300 feet AGL
Clouds: scattered clouds at 200 feet AGL
overcast cloud deck at 1300 feet AGL
Weather: automated observation with no human augmentation;
there may or may not be significant weather present at this time
Translated TAF for KMKN

There is no translated TAF available for this airport

Find All Airport Services Find A Hotel Find A Rental Car Find A Golf Course Find A Restaurant $100 Hamburger



FBO's on the Field
FBO Company Facility Photos Services Transportation Aviation Fuel Prices: Prices include tax
Catering Weather Repair Courtesy Rental Type 100LL JetA JetA+ MOGAS 8087
 
Comanche County/City Airport

This FBO has not yet been rated
FS:Avfuel
Last Updated: Aug-18
Login to update fuel prices
SS:
Contact Comanche County/City AirportMore FBO Information
 
Add another FBO Facility Photos Catering Weather Repair Courtesy Rental Type 100LL JetA JetA+ MOGAS 8087
Services Transportation Aviation Fuel Prices: Prices include tax


model-print
model-print
model-print
model-print